Triana, Alabama
Current Conditions -  °F | °C
As of 7:53 PM on Monday 22 Dec 2014 (Local Time) from KHSV Reporting Station
Haze Haze  
Wind Chill: 51°   Ceiling: 1000
Heat Index: 51°   Visibility: 3mi
Dew Point: 49°   Wind: 8mph
Humidity: 92%   Direction: 130°SE
Pressure: 29.78"   Gusts: NA
Location:  34.6731°N, 86.8135°W
Report Text: KHSV 230153Z 13007KT 3SM BR OVC010 11/09 A2978 RMK AO2 SFC VIS 5 RAB0059E45 SLP082 P0005 T01060094
Loading
Personal Weather Stations






























Interactive Weather Map New forecast layout! Learn more

10-Day Weather Forecast

Advertisements
Track Severe Weather on mobile